Barnsboro, New Jersey
Current Conditions -  °F | °C
As of 7:54 PM on Tuesday 21 Oct 2014 (Local Time) from KPHL Reporting Station
Overcast Overcast  
Wind Chill: 65°   Ceiling: 13000
Heat Index: 65°   Visibility: 10mi
Dew Point: 48°   Wind: 6mph
Humidity: 54%   Direction: 330°NNW
Pressure: 29.85"   Gusts: NA
Location:  39.7561°N, 75.1094°W
Report Text: KPHL 212354Z 33005KT 10SM FEW055 SCT080 BKN130 OVC200 18/09 A2985 RMK AO2 SLP106 T01830089 10211 20183 52013 $
Loading
Personal Weather Stations






























Interactive Weather Map
Tropical Storm Tracking
New forecast layout! Learn more

10-Day Weather Forecast

Advertisements
Track Severe Weather on mobile